createdAt,value
2018-09-04T00:01:42.646Z,100023.00
2018-09-04T00:04:23.580Z,100022.00
2018-09-04T00:07:04.801Z,100016.00
2018-09-04T00:09:45.625Z,100011.00
2018-09-04T00:12:26.716Z,100005.00
2018-09-04T00:15:07.567Z,100005.00
2018-09-04T00:17:48.295Z,100000.00
2018-09-04T00:20:29.085Z,100002.00
2018-09-04T00:23:09.488Z,100001.00
2018-09-04T00:25:50.362Z,99999.00
2018-09-04T00:28:31.477Z,100002.00
2018-09-04T00:31:12.721Z,100001.00
2018-09-04T00:33:53.972Z,99999.00
2018-09-04T00:36:34.372Z,100001.00
2018-09-04T00:39:15.097Z,100001.00
2018-09-04T00:41:55.421Z,99999.00
2018-09-04T00:44:36.212Z,99999.00
2018-09-04T00:47:16.714Z,99998.00
2018-09-04T00:49:57.842Z,100003.00
2018-09-04T00:52:39.478Z,100001.00
2018-09-04T00:55:19.875Z,99997.00
2018-09-04T00:58:00.584Z,99999.00
2018-09-04T01:00:42.288Z,99993.00
2018-09-04T01:03:23.234Z,99993.00
2018-09-04T01:06:04.995Z,99997.00
2018-09-04T01:08:45.350Z,99993.00
2018-09-04T01:11:26.166Z,99993.00
2018-09-04T01:14:06.961Z,100000.00
2018-09-04T01:16:47.834Z,100003.00
2018-09-04T01:19:29.120Z,100004.00
2018-09-04T01:22:10.018Z,100005.00
2018-09-04T01:24:50.659Z,100006.00
2018-09-04T01:27:32.060Z,100005.00
2018-09-04T01:30:13.113Z,100005.00
2018-09-04T01:32:53.688Z,100004.00
2018-09-04T01:35:34.318Z,100001.00
2018-09-04T01:38:14.813Z,100006.00
2018-09-04T01:40:55.395Z,100011.00
2018-09-04T01:43:35.965Z,100007.00
2018-09-04T01:46:16.676Z,100010.00
2018-09-04T01:48:57.429Z,100007.00
2018-09-04T01:51:38.266Z,100016.00
2018-09-04T01:54:20.125Z,100007.00
2018-09-04T01:57:01.200Z,100015.00
2018-09-04T01:59:41.987Z,100014.00
2018-09-04T02:02:22.345Z,100013.00
2018-09-04T02:05:03.297Z,100017.00
2018-09-04T02:07:43.777Z,100016.00
2018-09-04T02:10:24.962Z,100014.00
2018-09-04T02:13:05.789Z,100014.00
2018-09-04T02:15:46.701Z,100012.00
2018-09-04T02:18:27.287Z,100014.00
2018-09-04T02:21:07.747Z,100016.00
2018-09-04T02:23:48.117Z,100017.00
2018-09-04T02:26:28.656Z,100019.00
2018-09-04T02:29:09.244Z,100028.00
2018-09-04T02:31:49.985Z,100027.00
2018-09-04T02:34:30.749Z,100025.00
2018-09-04T02:37:11.674Z,100034.00
2018-09-04T02:39:52.757Z,100035.00
2018-09-04T02:42:33.546Z,100038.00
2018-09-04T02:45:14.635Z,100041.00
2018-09-04T02:47:55.332Z,100046.00
2018-09-04T02:50:35.892Z,100048.00
2018-09-04T02:53:17.345Z,100041.00
2018-09-04T02:55:57.811Z,100042.00
2018-09-04T02:58:38.724Z,100046.00
2018-09-04T03:01:19.488Z,100048.00
2018-09-04T03:04:00.032Z,100051.00
2018-09-04T03:06:40.571Z,100054.00
2018-09-04T03:09:21.189Z,100049.00
2018-09-04T03:12:02.156Z,100050.00
2018-09-04T03:14:43.074Z,100050.00
2018-09-04T03:17:23.974Z,100048.00
2018-09-04T03:20:04.540Z,100044.00
2018-09-04T03:22:45.352Z,100038.00
2018-09-04T03:25:26.164Z,100043.00
2018-09-04T03:28:06.512Z,100039.00
2018-09-04T03:30:47.534Z,100037.00
2018-09-04T03:33:29.060Z,100037.00
2018-09-04T03:36:10.261Z,100037.00
2018-09-04T03:38:51.057Z,100037.00
2018-09-04T03:41:31.420Z,100037.00
2018-09-04T03:44:11.848Z,100038.00
2018-09-04T03:46:52.213Z,100041.00
2018-09-04T03:49:32.600Z,100040.00
2018-09-04T03:52:13.533Z,100042.00
2018-09-04T03:54:54.138Z,100042.00
2018-09-04T03:57:35.011Z,100039.00
2018-09-04T04:00:15.428Z,100042.00
2018-09-04T04:02:56.860Z,100047.00
2018-09-04T04:05:37.438Z,100041.00
2018-09-04T04:08:17.877Z,100040.00
2018-09-04T04:10:58.608Z,100044.00
2018-09-04T04:13:39.149Z,100046.00
2018-09-04T04:16:20.285Z,100046.00
2018-09-04T04:19:00.656Z,100047.00
2018-09-04T04:21:41.069Z,100053.00
2018-09-04T04:24:21.634Z,100053.00
2018-09-04T04:27:02.505Z,100052.00
2018-09-04T04:29:43.303Z,100057.00
2018-09-04T04:32:24.592Z,100059.00
2018-09-04T04:35:06.056Z,100058.00
2018-09-04T04:37:46.601Z,100061.00
2018-09-04T04:40:27.512Z,100060.00
2018-09-04T04:43:08.946Z,100064.00
2018-09-04T04:45:49.767Z,100068.00
2018-09-04T04:48:30.596Z,100066.00
2018-09-04T04:51:11.104Z,100071.00
2018-09-04T04:53:51.678Z,100071.00
2018-09-04T04:56:32.645Z,100072.00
2018-09-04T04:59:13.465Z,100076.00
2018-09-04T05:01:53.852Z,100073.00
2018-09-04T05:04:34.465Z,100080.00
2018-09-04T05:07:14.982Z,100078.00
2018-09-04T05:09:56.892Z,100081.00
2018-09-04T05:12:37.657Z,100088.00
2018-09-04T05:15:18.471Z,100086.00
2018-09-04T05:17:59.083Z,100087.00
2018-09-04T05:20:39.793Z,100095.00
2018-09-04T05:23:20.618Z,100092.00
2018-09-04T05:26:01.097Z,100096.00
2018-09-04T05:28:41.691Z,100098.00
2018-09-04T05:31:22.860Z,100099.00
2018-09-04T05:34:03.695Z,100100.00
2018-09-04T05:36:44.272Z,100099.00
2018-09-04T05:39:25.172Z,100102.00
2018-09-04T05:42:11.620Z,100095.00
2018-09-04T05:44:52.473Z,100099.00
2018-09-04T05:47:35.376Z,100098.00
2018-09-04T05:50:17.128Z,100101.00
2018-09-04T05:52:58.245Z,100104.00
2018-09-04T05:55:38.929Z,100106.00
2018-09-04T05:58:19.801Z,100097.00
2018-09-04T06:01:02.296Z,100097.00
2018-09-04T06:03:43.152Z,100103.00
2018-09-04T06:06:23.667Z,100095.00
2018-09-04T06:09:06.215Z,100102.00
2018-09-04T06:11:47.129Z,100103.00
2018-09-04T06:14:28.013Z,100106.00
2018-09-04T06:17:09.080Z,100099.00
2018-09-04T06:19:49.557Z,100102.00
2018-09-04T06:22:30.729Z,100105.00
2018-09-04T06:25:11.492Z,100105.00
2018-09-04T06:27:52.429Z,100100.00
2018-09-04T06:30:33.437Z,100100.00
2018-09-04T06:33:13.972Z,100097.00
2018-09-04T06:35:55.223Z,100096.00
2018-09-04T06:38:36.125Z,100103.00
2018-09-04T06:41:17.887Z,100112.00
2018-09-04T06:43:59.124Z,100115.00
2018-09-04T06:46:39.602Z,100108.00
2018-09-04T06:49:20.745Z,100099.00
2018-09-04T06:52:01.197Z,100099.00
2018-09-04T06:54:42.149Z,100102.00
2018-09-04T06:57:23.942Z,100102.00
2018-09-04T07:00:04.953Z,100103.00
2018-09-04T07:02:46.173Z,100110.00
2018-09-04T07:05:27.085Z,100113.00
2018-09-04T07:08:07.525Z,100119.00
2018-09-04T07:10:47.904Z,100122.00
2018-09-04T07:13:28.633Z,100120.00
2018-09-04T07:16:09.318Z,100116.00
2018-09-04T07:18:49.864Z,100113.00
2018-09-04T07:21:30.942Z,100120.00
2018-09-04T07:24:11.789Z,100119.00
2018-09-04T07:26:52.655Z,100123.00
2018-09-04T07:29:33.496Z,100122.00
2018-09-04T07:32:14.797Z,100116.00
2018-09-04T07:34:55.375Z,100110.00
2018-09-04T07:37:35.884Z,100109.00
2018-09-04T07:40:16.753Z,100105.00
2018-09-04T07:42:57.730Z,100106.00
2018-09-04T07:45:38.495Z,100107.00
2018-09-04T07:48:19.593Z,100102.00
2018-09-04T07:51:00.380Z,100098.00
2018-09-04T07:53:40.907Z,100106.00
2018-09-04T07:56:22.212Z,100102.00
2018-09-04T07:59:02.924Z,100106.00
2018-09-04T08:01:44.030Z,100103.00
2018-09-04T08:04:25.287Z,100108.00
2018-09-04T08:07:07.046Z,100102.00
2018-09-04T08:09:47.638Z,100110.00
2018-09-04T08:12:28.394Z,100109.00
2018-09-04T08:15:09.540Z,100098.00
2018-09-04T08:17:50.042Z,100102.00
2018-09-04T08:20:31.171Z,100098.00
2018-09-04T08:23:11.772Z,100096.00
2018-09-04T08:25:52.871Z,100093.00
2018-09-04T08:28:34.119Z,100091.00
2018-09-04T08:31:14.958Z,100084.00
2018-09-04T08:33:55.507Z,100088.00
2018-09-04T08:36:36.498Z,100083.00
2018-09-04T08:39:17.197Z,100082.00
2018-09-04T08:41:57.624Z,100084.00
2018-09-04T08:44:38.199Z,100082.00
2018-09-04T08:47:19.454Z,100080.00
2018-09-04T08:50:00.381Z,100080.00
2018-09-04T08:52:40.757Z,100078.00
2018-09-04T08:55:21.952Z,100075.00
2018-09-04T08:58:02.573Z,100079.00
2018-09-04T09:00:43.317Z,100079.00
2018-09-04T09:03:24.525Z,100082.00
2018-09-04T09:06:05.638Z,100078.00
2018-09-04T09:08:46.694Z,100081.00
2018-09-04T09:11:27.204Z,100075.00
2018-09-04T09:14:07.554Z,100072.00
2018-09-04T09:16:48.620Z,100068.00
2018-09-04T09:19:29.282Z,100070.00
2018-09-04T09:22:11.031Z,100057.00
2018-09-04T09:24:52.211Z,100068.00
2018-09-04T09:27:32.685Z,100057.00
2018-09-04T09:30:14.377Z,100066.00
2018-09-04T09:32:55.191Z,100070.00
2018-09-04T09:35:36.233Z,100067.00
2018-09-04T09:38:16.708Z,100064.00
2018-09-04T09:40:57.304Z,100062.00
2018-09-04T09:43:37.857Z,100064.00
2018-09-04T09:46:18.989Z,100058.00
2018-09-04T09:48:59.442Z,100057.00
2018-09-04T09:51:40.009Z,100064.00
2018-09-04T09:54:20.504Z,100061.00
2018-09-04T09:57:01.712Z,100059.00
2018-09-04T09:59:42.719Z,100060.00
2018-09-04T10:02:27.449Z,100058.00
2018-09-04T10:05:09.369Z,100054.00
2018-09-04T10:07:50.740Z,100053.00
2018-09-04T10:10:31.588Z,100050.00
2018-09-04T10:13:12.376Z,100054.00
2018-09-04T10:15:54.101Z,100045.00
2018-09-04T10:18:34.632Z,100047.00
2018-09-04T10:21:16.333Z,100043.00
2018-09-04T10:23:57.339Z,100034.00
2018-09-04T10:26:38.368Z,100033.00
2018-09-04T10:29:19.712Z,100028.00
2018-09-04T10:32:00.445Z,100036.00
2018-09-04T10:34:41.113Z,100038.00
2018-09-04T10:37:21.945Z,100018.00
2018-09-04T10:40:07.955Z,100034.00
2018-09-04T10:42:48.807Z,100029.00
2018-09-04T10:45:34.776Z,100027.00
2018-09-04T10:48:20.149Z,100011.00
2018-09-04T10:51:01.388Z,100004.00
2018-09-04T10:53:42.052Z,99996.00
2018-09-04T10:56:22.851Z,99997.00
2018-09-04T10:59:03.419Z,100005.00
2018-09-04T11:01:44.133Z,100021.00
2018-09-04T11:04:24.868Z,99997.00
2018-09-04T11:07:05.625Z,99995.00
2018-09-04T11:09:47.218Z,100008.00
2018-09-04T11:12:29.128Z,100002.00
2018-09-04T11:15:09.728Z,99994.00
2018-09-04T11:17:50.205Z,99999.00
2018-09-04T11:20:31.217Z,100002.00
2018-09-04T11:23:12.097Z,99996.00
2018-09-04T11:25:53.361Z,100000.00
2018-09-04T11:28:38.260Z,100000.00
2018-09-04T11:31:19.025Z,99995.00
2018-09-04T11:34:00.000Z,99998.00
2018-09-04T11:36:41.249Z,100011.00
2018-09-04T11:39:22.130Z,99991.00
2018-09-04T11:42:03.040Z,100005.00
2018-09-04T11:44:45.161Z,99993.00
2018-09-04T11:47:25.562Z,99981.00
2018-09-04T11:50:06.234Z,99984.00
2018-09-04T11:52:47.104Z,99980.00
2018-09-04T11:55:27.948Z,99993.00
2018-09-04T11:58:09.881Z,99991.00
2018-09-04T12:00:50.482Z,99993.00
2018-09-04T12:03:31.428Z,99995.00
2018-09-04T12:06:12.333Z,100009.00
2018-09-04T12:08:53.178Z,100003.00
2018-09-04T12:11:33.845Z,100010.00
2018-09-04T12:14:14.411Z,100006.00
2018-09-04T12:16:55.214Z,100011.00
2018-09-04T12:20:46.569Z,100006.00
2018-09-04T12:23:27.592Z,99997.00
2018-09-04T12:26:10.654Z,99988.00
2018-09-04T12:28:58.326Z,99974.00
2018-09-04T12:31:39.256Z,99974.00
2018-09-04T12:34:20.241Z,99975.00
2018-09-04T12:37:01.115Z,99985.00
2018-09-04T12:39:45.668Z,99986.00
2018-09-04T12:42:28.152Z,99979.00
2018-09-04T12:45:09.311Z,99981.00
2018-09-04T12:47:50.891Z,99982.00
2018-09-04T12:50:31.884Z,99974.00
2018-09-04T12:53:12.753Z,99971.00
2018-09-04T12:55:53.761Z,99967.00
2018-09-04T12:58:34.617Z,99972.00
2018-09-04T13:01:15.009Z,99971.00
2018-09-04T13:03:55.971Z,99969.00
2018-09-04T13:06:37.596Z,99973.00
2018-09-04T13:09:18.084Z,99970.00
2018-09-04T13:11:59.733Z,99967.00
2018-09-04T13:14:40.973Z,99972.00
2018-09-04T13:17:21.607Z,99967.00
2018-09-04T13:20:02.839Z,99977.00
2018-09-04T13:22:43.407Z,99973.00
2018-09-04T13:25:24.148Z,99969.00
2018-09-04T13:28:06.105Z,99956.00
2018-09-04T13:30:46.688Z,99964.00
2018-09-04T13:33:27.448Z,99957.00
2018-09-04T13:36:08.249Z,99952.00
2018-09-04T13:38:50.280Z,99959.00
2018-09-04T13:41:33.572Z,99954.00
2018-09-04T13:44:14.786Z,99952.00
2018-09-04T13:46:55.689Z,99949.00
2018-09-04T13:49:37.011Z,99944.00
2018-09-04T13:52:17.941Z,99947.00
2018-09-04T13:54:58.468Z,99943.00
2018-09-04T13:57:39.033Z,99940.00
2018-09-04T14:00:20.070Z,99942.00
2018-09-04T14:03:00.953Z,99944.00
2018-09-04T14:05:42.610Z,99943.00
2018-09-04T14:08:23.582Z,99954.00
2018-09-04T14:11:04.116Z,99953.00
2018-09-04T14:13:44.670Z,99950.00
2018-09-04T14:16:26.641Z,99952.00
2018-09-04T14:19:07.270Z,99945.00
2018-09-04T14:21:48.505Z,99951.00
2018-09-04T14:24:28.890Z,99949.00
2018-09-04T14:27:09.385Z,99948.00
2018-09-04T14:29:53.965Z,99953.00
2018-09-04T14:32:30.460Z,99950.00
2018-09-04T14:35:11.063Z,99953.00
2018-09-04T14:37:51.527Z,99948.00
2018-09-04T14:40:28.769Z,99948.00
2018-09-04T14:43:06.338Z,99943.00
2018-09-04T14:45:43.327Z,99940.00
2018-09-04T14:48:20.021Z,99953.00
2018-09-04T14:50:56.954Z,99949.00
2018-09-04T14:53:34.142Z,99946.00
2018-09-04T14:56:10.908Z,99948.00
2018-09-04T14:58:48.717Z,99942.00
2018-09-04T15:01:27.213Z,99943.00
2018-09-04T15:04:04.048Z,99945.00
2018-09-04T15:06:40.909Z,99945.00
2018-09-04T15:09:18.584Z,99943.00
2018-09-04T15:11:56.381Z,99939.00
2018-09-04T15:14:33.550Z,99946.00
2018-09-04T15:17:10.527Z,99949.00
2018-09-04T15:19:48.273Z,99950.00
2018-09-04T15:22:25.225Z,99953.00
2018-09-04T15:25:01.569Z,99948.00
2018-09-04T15:27:40.081Z,99944.00
2018-09-04T15:30:18.086Z,99954.00
2018-09-04T15:32:56.172Z,99951.00
2018-09-04T15:35:33.665Z,99958.00
2018-09-04T15:38:10.876Z,99963.00
2018-09-04T15:40:50.271Z,99960.00
2018-09-04T15:43:27.145Z,99958.00
2018-09-04T15:46:05.229Z,99955.00
2018-09-04T15:48:42.861Z,99954.00
2018-09-04T15:51:20.193Z,99959.00
2018-09-04T15:53:56.544Z,99958.00
2018-09-04T15:56:33.754Z,99959.00
2018-09-04T15:59:10.527Z,99957.00
2018-09-04T16:01:48.406Z,99956.00
2018-09-04T16:04:24.919Z,99961.00
2018-09-04T16:07:02.496Z,99963.00
2018-09-04T16:09:39.961Z,99966.00
2018-09-04T16:12:17.310Z,99960.00
2018-09-04T16:14:54.796Z,99966.00
2018-09-04T16:17:32.824Z,99963.00
2018-09-04T16:20:11.160Z,99971.00
2018-09-04T16:22:48.703Z,99966.00
2018-09-04T16:25:25.322Z,99965.00
2018-09-04T16:28:01.685Z,99971.00
2018-09-04T16:30:37.889Z,99968.00
2018-09-04T16:33:15.163Z,99968.00
2018-09-04T16:35:51.689Z,99970.00
2018-09-04T16:38:28.037Z,99978.00
2018-09-04T16:41:04.685Z,99974.00
2018-09-04T16:43:41.382Z,99979.00
2018-09-04T16:46:18.448Z,99982.00
2018-09-04T16:48:56.814Z,99983.00
2018-09-04T16:51:33.392Z,99979.00
2018-09-04T16:54:10.556Z,99981.00
2018-09-04T16:56:47.514Z,99986.00
2018-09-04T16:59:23.978Z,99985.00
2018-09-04T17:02:00.384Z,99983.00
2018-09-04T17:04:37.175Z,99984.00
2018-09-04T17:07:14.093Z,99986.00
2018-09-04T17:09:51.955Z,99989.00
2018-09-04T17:12:29.329Z,99996.00
2018-09-04T17:15:08.351Z,99993.00
2018-09-04T17:17:46.942Z,100001.00
2018-09-04T17:20:24.557Z,100006.00
2018-09-04T17:23:01.592Z,100004.00
2018-09-04T17:25:39.532Z,100008.00
2018-09-04T17:28:18.480Z,100013.00
2018-09-04T17:30:55.708Z,100010.00
2018-09-04T17:33:33.117Z,100015.00
2018-09-04T17:36:12.022Z,100017.00
2018-09-04T17:38:49.761Z,100017.00
2018-09-04T17:41:27.337Z,100023.00
2018-09-04T17:44:05.019Z,100023.00
2018-09-04T17:46:41.390Z,100028.00
2018-09-04T17:49:18.509Z,100028.00
2018-09-04T17:51:56.818Z,100028.00
2018-09-04T17:54:35.468Z,100025.00
2018-09-04T17:57:13.282Z,100029.00
2018-09-04T17:59:50.965Z,100037.00
2018-09-04T18:02:28.453Z,100042.00
2018-09-04T18:05:05.004Z,100042.00
2018-09-04T18:07:42.172Z,100049.00
2018-09-04T18:10:19.616Z,100058.00
2018-09-04T18:12:56.360Z,100058.00
2018-09-04T18:15:34.490Z,100063.00
2018-09-04T18:18:10.997Z,100072.00
2018-09-04T18:20:49.169Z,100072.00
2018-09-04T18:23:27.884Z,100075.00
2018-09-04T18:26:05.660Z,100074.00
2018-09-04T18:28:43.217Z,100075.00
2018-09-04T18:31:21.434Z,100078.00
2018-09-04T18:33:58.571Z,100083.00
2018-09-04T18:36:34.628Z,100085.00
2018-09-04T18:39:12.224Z,100083.00
2018-09-04T18:41:48.589Z,100093.00
2018-09-04T18:44:26.202Z,100094.00
2018-09-04T18:47:05.364Z,100101.00
2018-09-04T18:49:42.186Z,100099.00
2018-09-04T18:52:20.183Z,100114.00
2018-09-04T18:54:56.626Z,100108.00
2018-09-04T18:57:33.504Z,100110.00
2018-09-04T19:00:09.898Z,100112.00
2018-09-04T19:02:48.276Z,100115.00
2018-09-04T19:05:24.788Z,100110.00
2018-09-04T19:08:01.138Z,100117.00
2018-09-04T19:10:38.633Z,100119.00
2018-09-04T19:13:15.276Z,100122.00
2018-09-04T19:15:51.877Z,100121.00
2018-09-04T19:18:27.732Z,100121.00
2018-09-04T19:21:04.226Z,100122.00
2018-09-04T19:23:40.439Z,100126.00
2018-09-04T19:26:17.038Z,100130.00
2018-09-04T19:29:34.124Z,100128.00
2018-09-04T19:32:10.120Z,100128.00
2018-09-04T19:34:45.986Z,100128.00
2018-09-04T19:37:24.337Z,100129.00
2018-09-04T19:40:00.777Z,100129.00
2018-09-04T19:42:37.677Z,100128.00
2018-09-04T19:45:14.228Z,100131.00
2018-09-04T19:47:50.449Z,100133.00
2018-09-04T19:50:26.653Z,100137.00
2018-09-04T19:53:04.561Z,100137.00
2018-09-04T19:55:41.333Z,100141.00
2018-09-04T19:58:18.206Z,100136.00
2018-09-04T20:00:55.907Z,100139.00
2018-09-04T20:03:32.516Z,100144.00
2018-09-04T20:06:09.522Z,100144.00
2018-09-04T20:08:46.303Z,100147.00
2018-09-04T20:11:23.146Z,100154.00
2018-09-04T20:13:59.763Z,100152.00
2018-09-04T20:16:35.644Z,100156.00
2018-09-04T20:19:11.426Z,100156.00
2018-09-04T20:21:48.378Z,100163.00
2018-09-04T20:24:24.261Z,100164.00
2018-09-04T20:27:01.229Z,100173.00
2018-09-04T20:29:39.119Z,100177.00
2018-09-04T20:32:14.792Z,100179.00
2018-09-04T20:34:51.134Z,100168.00
2018-09-04T20:37:27.663Z,100172.00
2018-09-04T20:40:04.301Z,100174.00
2018-09-04T20:42:41.482Z,100178.00
2018-09-04T20:45:19.676Z,100177.00
2018-09-04T20:47:55.683Z,100182.00
2018-09-04T20:50:31.702Z,100177.00
2018-09-04T20:53:07.999Z,100183.00
2018-09-04T20:55:44.341Z,100187.00
2018-09-04T20:58:37.081Z,100183.00
2018-09-04T21:01:30.887Z,100185.00
2018-09-04T21:04:23.949Z,100184.00
2018-09-04T21:06:58.427Z,100181.00
2018-09-04T21:09:42.526Z,100182.00
2018-09-04T21:12:19.488Z,100190.00
2018-09-04T21:14:54.978Z,100185.00
2018-09-04T21:17:30.677Z,100187.00
2018-09-04T21:20:07.677Z,100187.00
2018-09-04T21:22:44.101Z,100195.00
2018-09-04T21:25:21.053Z,100197.00
2018-09-04T21:27:57.106Z,100192.00
2018-09-04T21:30:33.957Z,100193.00
2018-09-04T21:33:12.463Z,100200.00
2018-09-04T21:35:48.628Z,100191.00
2018-09-04T21:38:24.930Z,100197.00
2018-09-04T21:41:01.881Z,100194.00
2018-09-04T21:43:38.246Z,100200.00
2018-09-04T21:46:14.702Z,100197.00
2018-09-04T21:48:51.187Z,100202.00
2018-09-04T21:51:27.300Z,100203.00
2018-09-04T21:54:03.892Z,100207.00
2018-09-04T21:56:40.062Z,100207.00
2018-09-04T21:59:17.238Z,100206.00
2018-09-04T22:01:53.711Z,100208.00
2018-09-04T22:04:29.263Z,100207.00
2018-09-04T22:07:05.738Z,100204.00
2018-09-04T22:09:42.809Z,100214.00
2018-09-04T22:12:19.133Z,100207.00
2018-09-04T22:14:55.731Z,100209.00
2018-09-04T22:17:32.160Z,100212.00
2018-09-04T22:20:08.501Z,100212.00
2018-09-04T22:22:45.173Z,100208.00
2018-09-04T22:25:21.522Z,100215.00
2018-09-04T22:27:58.207Z,100220.00
2018-09-04T22:30:34.641Z,100220.00
2018-09-04T22:33:11.334Z,100225.00
2018-09-04T22:35:47.253Z,100224.00
2018-09-04T22:38:25.088Z,100221.00
2018-09-04T22:41:01.258Z,100223.00
2018-09-04T22:43:37.992Z,100220.00
2018-09-04T22:46:15.064Z,100221.00
2018-09-04T22:48:52.202Z,100219.00
2018-09-04T22:51:36.546Z,100220.00
2018-09-04T22:54:12.916Z,100229.00
2018-09-04T22:56:49.276Z,100228.00
2018-09-04T22:59:26.405Z,100227.00
2018-09-04T23:02:03.319Z,100230.00
2018-09-04T23:04:39.607Z,100231.00
2018-09-04T23:07:16.010Z,100231.00
2018-09-04T23:09:52.225Z,100233.00
2018-09-04T23:12:28.370Z,100236.00
2018-09-04T23:15:04.898Z,100240.00
2018-09-04T23:17:41.266Z,100237.00
2018-09-04T23:20:17.408Z,100239.00
2018-09-04T23:22:54.122Z,100232.00
2018-09-04T23:25:30.568Z,100233.00
2018-09-04T23:28:06.816Z,100233.00
2018-09-04T23:30:43.256Z,100233.00
2018-09-04T23:33:20.785Z,100234.00
2018-09-04T23:35:57.386Z,100235.00
2018-09-04T23:38:33.617Z,100233.00
2018-09-04T23:41:10.223Z,100235.00
2018-09-04T23:43:47.747Z,100239.00
2018-09-04T23:46:24.564Z,100241.00
2018-09-04T23:49:01.648Z,100233.00
2018-09-04T23:51:38.447Z,100239.00
2018-09-04T23:54:14.236Z,100238.00
2018-09-04T23:56:50.055Z,100234.00
2018-09-04T23:59:26.233Z,100239.00
